Time;durP1;ratioP1;P1;durP2;ratioP2;P2;SDS_P1;SDS_P2;PMS_P1;PMS_P2;Temp;Humidity;BMP_temperature;BMP_pressure;BME280_temperature;BME280_humidity;BME280_pressure;Samples;Min_cycle;Max_cycle;Signal;HPM_P1;HPM_P2
2022/12/20 00:01:09;;;;;;;27.47;14.80;;;4.20;99.90;;;;;;5012856;28;20636;-70
2022/12/20 00:03:36;;;;;;;25.50;13.93;;;4.20;99.90;;;;;;5014135;28;20216;-72
2022/12/20 00:06:02;;;;;;;24.47;14.47;;;4.20;99.90;;;;;;5018172;28;20664;-71
2022/12/20 00:08:27;;;;;;;31.20;15.23;;;4.30;99.90;;;;;;5016814;28;20213;-71
2022/12/20 00:10:53;;;;;;;25.77;13.70;;;4.30;99.90;;;;;;5018015;28;20226;-70
2022/12/20 00:13:19;;;;;;;25.73;14.07;;;4.30;99.90;;;;;;5020039;28;20582;-72
2022/12/20 00:15:44;;;;;;;27.90;14.80;;;4.40;99.90;;;;;;5019282;28;20360;-73
2022/12/20 00:18:10;;;;;;;25.83;13.03;;;4.40;99.90;;;;;;5026945;28;20187;-72
2022/12/20 00:20:35;;;;;;;24.27;13.43;;;4.30;99.90;;;;;;5027866;28;20729;-75
2022/12/20 00:23:01;;;;;;;26.00;14.40;;;4.30;99.90;;;;;;5029507;28;20215;-73
2022/12/20 00:25:28;;;;;;;27.13;14.73;;;4.30;99.90;;;;;;5026009;28;20224;-71
2022/12/20 00:27:54;;;;;;;24.77;14.47;;;4.20;99.90;;;;;;5028444;28;20594;-72
2022/12/20 00:30:19;;;;;;;26.27;14.57;;;4.20;99.90;;;;;;5026127;28;20204;-72
2022/12/20 00:32:45;;;;;;;25.63;13.83;;;4.30;99.90;;;;;;5040524;23;20664;-75
2022/12/20 00:35:11;;;;;;;21.53;12.83;;;4.30;99.90;;;;;;5027678;28;20210;-75
2022/12/20 00:37:37;;;;;;;24.30;13.13;;;4.30;99.90;;;;;;5028888;28;20237;-75
2022/12/20 00:40:05;;;;;;;24.27;12.87;;;4.30;99.90;;;;;;5028146;28;20699;-75
2022/12/20 00:42:30;;;;;;;27.13;14.27;;;4.30;99.90;;;;;;5028978;28;20223;-76
2022/12/20 00:44:56;;;;;;;27.13;14.27;;;4.40;99.90;;;;;;5029250;28;20219;-74
2022/12/20 00:47:22;;;;;;;27.63;13.67;;;4.30;99.90;;;;;;5029212;28;20291;-75
2022/12/20 00:49:47;;;;;;;29.03;14.77;;;4.40;99.90;;;;;;5028077;28;20716;-75
2022/12/20 00:52:13;;;;;;;22.73;12.63;;;4.40;99.90;;;;;;5028574;28;20265;-75
2022/12/20 00:54:38;;;;;;;27.90;13.47;;;4.40;99.90;;;;;;5025961;28;20304;-74
2022/12/20 00:57:04;;;;;;;25.40;14.13;;;4.40;99.90;;;;;;5029335;28;20180;-74
2022/12/20 00:59:30;;;;;;;26.60;14.37;;;4.30;99.90;;;;;;5027843;28;20250;-76
2022/12/20 01:01:55;;;;;;;21.60;13.50;;;4.40;99.90;;;;;;5027217;28;20739;-74
2022/12/20 01:04:21;;;;;;;21.93;12.77;;;4.40;99.90;;;;;;5044573;28;20196;-74
2022/12/20 01:06:46;;;;;;;29.27;14.07;;;4.40;99.90;;;;;;5029020;28;20208;-74
2022/12/20 01:09:12;;;;;;;24.50;13.60;;;4.40;99.90;;;;;;5028940;28;20246;-74
2022/12/20 01:11:38;;;;;;;23.53;13.30;;;4.50;99.90;;;;;;5029277;28;20199;-74
2022/12/20 01:14:12;;;;;;;24.10;12.60;;;4.50;99.90;;;;;;5028586;28;20303;-72
2022/12/20 01:16:41;;;;;;;21.43;12.90;;;4.50;99.90;;;;;;5027523;28;20211;-75
2022/12/20 01:19:10;;;;;;;23.80;13.27;;;4.50;99.90;;;;;;5026014;28;20279;-73
2022/12/20 01:21:38;;;;;;;23.57;13.37;;;4.50;99.90;;;;;;5027335;28;20780;-75
2022/12/20 01:24:04;;;;;;;26.13;13.23;;;4.60;99.90;;;;;;5029533;28;20175;-71
2022/12/20 01:26:30;;;;;;;21.23;11.63;;;4.60;99.90;;;;;;5044193;28;20211;-75
2022/12/20 01:28:58;;;;;;;21.40;11.63;;;4.60;99.90;;;;;;5029033;28;20203;-76
2022/12/20 01:31:25;;;;;;;27.17;13.33;;;4.60;99.90;;;;;;5028133;28;20283;-75
2022/12/20 01:33:51;;;;;;;23.03;12.50;;;4.70;99.90;;;;;;5028883;28;20219;-74
2022/12/20 01:36:25;;;;;;;23.97;12.73;;;4.70;99.90;;;;;;5028624;28;20184;-74
2022/12/20 01:38:56;;;;;;;19.97;12.13;;;4.70;99.90;;;;;;5029748;28;20175;-74
2022/12/20 01:41:22;;;;;;;22.60;12.40;;;4.60;99.90;;;;;;5031501;28;20203;-74
2022/12/20 01:43:54;;;;;;;21.70;11.23;;;4.70;99.90;;;;;;5032636;28;20391;-74
2022/12/20 01:46:23;;;;;;;22.87;12.17;;;4.70;99.90;;;;;;5035793;28;20625;-73
2022/12/20 01:48:55;;;;;;;20.80;11.63;;;4.70;99.90;;;;;;5032717;28;20228;-73
2022/12/20 01:51:22;;;;;;;21.63;12.37;;;4.70;99.90;;;;;;5028937;28;20177;-74
2022/12/20 01:53:53;;;;;;;22.23;12.43;;;4.70;99.90;;;;;;5032859;28;20171;-73
2022/12/20 01:56:19;;;;;;;21.90;12.13;;;4.70;99.90;;;;;;5031908;28;20304;-74
2022/12/20 01:58:48;;;;;;;21.20;11.87;;;4.70;99.90;;;;;;5032255;28;20255;-73
2022/12/20 02:01:13;;;;;;;20.70;12.23;;;4.80;99.90;;;;;;5030645;28;20237;-73
2022/12/20 02:03:41;;;;;;;22.50;12.63;;;4.80;99.90;;;;;;5030859;28;20303;-73
2022/12/20 02:06:18;;;;;;;18.93;11.50;;;4.80;99.90;;;;;;5032405;28;20183;-73
2022/12/20 02:08:47;;;;;;;19.47;12.73;;;4.70;99.90;;;;;;5031239;28;20219;-74
2022/12/20 02:11:33;;;;;;;21.07;11.33;;;4.70;99.90;;;;;;5031180;28;20227;-73
2022/12/20 02:14:23;;;;;;;19.83;11.87;;;4.70;99.90;;;;;;5030493;28;20208;-74
2022/12/20 02:16:57;;;;;;;23.83;13.03;;;4.70;99.90;;;;;;5031961;28;20207;-77
2022/12/20 02:19:47;;;;;;;23.10;13.13;;;4.70;99.90;;;;;;5031276;28;20221;-74
2022/12/20 02:22:13;;;;;;;23.83;11.93;;;4.70;99.90;;;;;;5031288;28;20692;-77
2022/12/20 02:24:54;;;;;;;23.67;12.40;;;4.70;99.90;;;;;;5045776;28;20277;-76
2022/12/20 02:27:52;;;;;;;25.50;12.63;;;4.70;99.90;;;;;;5044878;28;20181;-76
2022/12/20 02:30:21;;;;;;;23.10;11.43;;;4.70;99.90;;;;;;5030361;28;20187;-76
2022/12/20 02:32:59;;;;;;;22.03;12.60;;;4.70;99.90;;;;;;5030578;28;20208;-75
2022/12/20 02:35:29;;;;;;;19.63;12.10;;;4.70;99.90;;;;;;5046409;28;20207;-75
2022/12/20 02:37:57;;;;;;;22.77;12.03;;;4.80;99.90;;;;;;5031347;28;20211;-75
2022/12/20 02:40:32;;;;;;;21.63;12.13;;;4.70;99.90;;;;;;5030497;28;20232;-74
2022/12/20 02:43:01;;;;;;;17.30;10.77;;;4.70;99.90;;;;;;5028544;28;20223;-75
2022/12/20 02:45:32;;;;;;;22.53;11.70;;;4.70;99.90;;;;;;5046856;28;20180;-75
2022/12/20 02:48:06;;;;;;;18.47;11.47;;;4.70;99.90;;;;;;5030158;28;20171;-75
2022/12/20 02:50:49;;;;;;;21.57;11.77;;;4.70;99.90;;;;;;5030564;28;20288;-75
2022/12/20 02:53:16;;;;;;;21.67;12.30;;;4.70;99.90;;;;;;5030697;28;20250;-75
2022/12/20 02:55:56;;;;;;;19.63;11.53;;;4.70;99.90;;;;;;5031301;28;20209;-75
2022/12/20 02:58:33;;;;;;;19.50;11.90;;;4.80;99.90;;;;;;5027938;28;20204;-75
2022/12/20 03:01:03;;;;;;;19.87;11.13;;;4.80;99.90;;;;;;5028935;28;20246;-75
2022/12/20 03:03:33;;;;;;;21.53;12.33;;;4.90;99.90;;;;;;5027643;28;20227;-75
2022/12/20 03:05:59;;;;;;;19.47;11.30;;;4.90;99.90;;;;;;5046630;28;20178;-75
2022/12/20 03:08:24;;;;;;;23.33;12.00;;;4.90;99.90;;;;;;5046306;28;20211;-75
2022/12/20 03:10:52;;;;;;;18.37;10.67;;;5.00;99.90;;;;;;5030229;28;20735;-75
2022/12/20 03:13:17;;;;;;;19.37;12.57;;;4.90;99.90;;;;;;5029722;28;20597;-74
2022/12/20 03:15:43;;;;;;;21.87;12.10;;;4.90;99.90;;;;;;5030792;28;20212;-74
2022/12/20 03:18:09;;;;;;;21.07;12.13;;;4.90;99.90;;;;;;5029717;28;20279;-75
2022/12/20 03:20:35;;;;;;;17.90;10.83;;;4.90;99.90;;;;;;5027757;28;20203;-75
2022/12/20 03:23:01;;;;;;;18.97;10.63;;;4.90;99.90;;;;;;5029969;28;20247;-75
2022/12/20 03:25:27;;;;;;;21.53;11.50;;;4.90;99.90;;;;;;5030835;28;20204;-75
2022/12/20 03:27:53;;;;;;;18.87;11.60;;;5.00;99.90;;;;;;5028945;28;20595;-75
2022/12/20 03:30:18;;;;;;;18.53;10.43;;;5.00;99.90;;;;;;5030668;28;20207;-75
2022/12/20 03:32:44;;;;;;;18.43;11.27;;;5.00;99.90;;;;;;5030702;28;20242;-78
2022/12/20 03:35:09;;;;;;;18.67;11.37;;;5.00;99.90;;;;;;5029119;28;20216;-75
2022/12/20 03:37:35;;;;;;;22.63;11.60;;;5.00;99.90;;;;;;5028991;28;20204;-75
2022/12/20 03:40:01;;;;;;;18.87;10.60;;;5.00;99.90;;;;;;5027686;28;20244;-76
2022/12/20 03:42:26;;;;;;;18.67;11.00;;;5.00;99.90;;;;;;5045490;28;20203;-77
2022/12/20 03:44:52;;;;;;;19.73;11.30;;;5.10;99.90;;;;;;5030682;28;20865;-77
2022/12/20 03:47:18;;;;;;;16.90;10.97;;;5.10;99.90;;;;;;5045051;28;20212;-76
2022/12/20 03:49:43;;;;;;;19.27;11.10;;;5.20;99.90;;;;;;5027564;28;20203;-75
2022/12/20 03:52:11;;;;;;;20.17;11.17;;;5.20;99.90;;;;;;5024235;28;20217;-74
2022/12/20 03:54:37;;;;;;;18.03;11.10;;;5.10;99.90;;;;;;5024886;28;20254;-76
2022/12/20 03:57:03;;;;;;;20.73;10.67;;;5.20;99.90;;;;;;5030613;28;20184;-74
2022/12/20 03:59:28;;;;;;;18.83;10.50;;;5.20;99.90;;;;;;5029636;28;21037;-75
2022/12/20 04:01:54;;;;;;;17.70;10.70;;;5.20;99.90;;;;;;5029364;28;20211;-75
2022/12/20 04:04:19;;;;;;;19.50;11.43;;;5.10;99.90;;;;;;5044190;28;20722;-75
2022/12/20 04:06:45;;;;;;;18.60;10.63;;;5.10;99.90;;;;;;5029932;28;20215;-75
2022/12/20 04:09:11;;;;;;;19.57;11.00;;;5.10;99.90;;;;;;5029167;28;20188;-76
2022/12/20 04:11:38;;;;;;;22.77;11.77;;;5.10;99.90;;;;;;5029630;28;20283;-74
2022/12/20 04:14:04;;;;;;;17.97;10.30;;;5.10;99.90;;;;;;5029144;28;20219;-74
2022/12/20 04:16:31;;;;;;;18.73;10.30;;;5.10;99.90;;;;;;5026061;28;20640;-74
2022/12/20 04:18:57;;;;;;;19.47;10.80;;;5.10;99.90;;;;;;5027990;28;20215;-75
2022/12/20 04:21:25;;;;;;;20.83;11.43;;;5.10;99.90;;;;;;5029081;28;20576;-75
2022/12/20 04:23:51;;;;;;;19.30;11.27;;;5.10;99.90;;;;;;5029886;28;20252;-75
2022/12/20 04:26:17;;;;;;;18.50;11.17;;;5.10;99.90;;;;;;5029335;28;20299;-75
2022/12/20 04:28:43;;;;;;;19.87;11.33;;;5.10;99.90;;;;;;5029617;28;20237;-75
2022/12/20 04:31:09;;;;;;;19.47;11.20;;;5.20;99.90;;;;;;5028878;28;20240;-75
2022/12/20 04:33:35;;;;;;;19.97;11.13;;;5.10;99.90;;;;;;5029485;28;20314;-75
2022/12/20 04:36:01;;;;;;;17.70;10.37;;;5.10;99.90;;;;;;5032747;28;20263;-75
2022/12/20 04:38:26;;;;;;;18.57;11.30;;;5.10;99.90;;;;;;5029393;28;20934;-74
2022/12/20 04:40:54;;;;;;;18.90;11.23;;;5.00;99.90;;;;;;5028525;28;20230;-75
2022/12/20 04:43:20;;;;;;;18.87;10.63;;;5.00;99.90;;;;;;5029348;28;20239;-74
2022/12/20 04:45:51;;;;;;;17.93;10.60;;;5.00;99.90;;;;;;5024139;28;20212;-74
2022/12/20 04:48:18;;;;;;;16.80;10.30;;;4.90;99.90;;;;;;5029133;28;20184;-74
2022/12/20 04:50:50;;;;;;;19.10;10.40;;;4.90;99.90;;;;;;5029311;28;20689;-75
2022/12/20 04:56:01;;;;;;;21.10;11.60;;;5.00;99.90;;;;;;5029594;28;20259;-75
2022/12/20 04:58:26;;;;;;;22.00;11.17;;;4.90;99.90;;;;;;5028516;28;20633;-74
2022/12/20 05:00:52;;;;;;;20.58;12.20;;;4.90;99.90;;;;;;5029159;28;20425;-75
2022/12/20 05:03:19;;;;;;;16.30;10.60;;;5.00;99.90;;;;;;5026262;28;20593;-74
2022/12/20 05:05:44;;;;;;;18.43;11.23;;;5.00;99.90;;;;;;5029449;28;20564;-76
2022/12/20 05:08:10;;;;;;;18.27;11.07;;;4.90;99.90;;;;;;5027665;28;20236;-73
2022/12/20 05:10:36;;;;;;;21.10;11.93;;;4.90;99.90;;;;;;5028250;28;20212;-73
2022/12/20 05:13:01;;;;;;;17.03;10.80;;;4.90;99.90;;;;;;5027480;28;20691;-75
2022/12/20 05:15:28;;;;;;;16.63;10.00;;;4.90;99.90;;;;;;5030645;28;20266;-75
2022/12/20 05:17:59;;;;;;;20.47;10.90;;;4.90;99.90;;;;;;5032421;28;20628;-75
2022/12/20 05:20:25;;;;;;;19.17;11.30;;;5.00;99.90;;;;;;5032930;28;20239;-72
2022/12/20 05:28:23;;;;;;;19.37;11.30;;;5.00;99.90;;;;;;5032306;28;20254;-73
2022/12/20 05:30:48;;;;;;;19.43;10.83;;;5.00;99.90;;;;;;5032960;28;20212;-74
2022/12/20 05:33:14;;;;;;;20.07;11.13;;;5.10;99.90;;;;;;5032586;28;20707;-74
2022/12/20 05:35:40;;;;;;;16.47;10.13;;;5.00;99.90;;;;;;5033947;28;20639;-75
2022/12/20 05:38:06;;;;;;;18.07;10.67;;;5.00;99.90;;;;;;5033077;28;20379;-74
2022/12/20 05:40:32;;;;;;;21.57;11.73;;;5.10;99.90;;;;;;5032541;28;20307;-75
2022/12/20 05:42:57;;;;;;;21.90;10.93;;;5.10;99.90;;;;;;5031601;28;20226;-75
2022/12/20 05:45:23;;;;;;;16.07;11.03;;;5.10;99.90;;;;;;5032938;28;20187;-75
2022/12/20 05:47:48;;;;;;;20.77;11.17;;;5.10;99.90;;;;;;5041323;28;20611;-75
2022/12/20 05:50:16;;;;;;;21.37;12.00;;;5.20;99.90;;;;;;5032118;28;20235;-75
2022/12/20 05:52:41;;;;;;;19.33;10.83;;;5.20;99.90;;;;;;5033063;28;20654;-75
2022/12/20 05:55:07;;;;;;;21.80;12.40;;;5.20;99.90;;;;;;5030597;28;20239;-74
2022/12/20 05:57:33;;;;;;;17.40;10.73;;;5.20;99.90;;;;;;5033062;28;20208;-75
2022/12/20 05:59:59;;;;;;;18.53;10.17;;;5.30;99.90;;;;;;5039949;28;20202;-75
2022/12/20 06:02:24;;;;;;;18.13;11.30;;;5.30;99.90;;;;;;5032673;28;20204;-75
2022/12/20 06:04:50;;;;;;;18.87;11.67;;;5.30;99.90;;;;;;5033911;28;20583;-77
2022/12/20 06:07:15;;;;;;;20.47;11.50;;;5.30;99.90;;;;;;5031209;28;20231;-74
2022/12/20 06:09:41;;;;;;;19.03;11.83;;;5.30;99.90;;;;;;5031903;28;20295;-76
2022/12/20 06:12:06;;;;;;;19.37;11.13;;;5.30;99.90;;;;;;5031538;28;20200;-75
2022/12/20 06:14:32;;;;;;;17.10;10.40;;;5.30;99.90;;;;;;5032586;28;20634;-75
2022/12/20 06:16:58;;;;;;;18.13;10.33;;;5.30;99.90;;;;;;5030952;28;20750;-75
2022/12/20 06:19:23;;;;;;;17.63;11.53;;;5.40;99.90;;;;;;5027811;28;20237;-75
2022/12/20 06:21:49;;;;;;;20.03;10.87;;;5.40;99.90;;;;;;5031372;28;20211;-75
2022/12/20 06:24:14;;;;;;;13.77;10.53;;;5.40;99.90;;;;;;5030911;28;20207;-75
2022/12/20 06:26:40;;;;;;;19.73;11.03;;;5.40;99.90;;;;;;5032381;28;20176;-76
2022/12/20 06:29:08;;;;;;;17.60;10.47;;;5.50;99.90;;;;;;5032384;28;20204;-75
2022/12/20 06:31:33;;;;;;;18.07;11.30;;;5.50;99.90;;;;;;5032232;28;20679;-74
2022/12/20 06:33:59;;;;;;;22.93;11.53;;;5.50;99.90;;;;;;5063511;23;20229;-73
2022/12/20 06:36:25;;;;;;;19.47;11.10;;;5.50;99.90;;;;;;5067088;28;20183;-73
2022/12/20 06:38:50;;;;;;;20.17;11.27;;;5.50;99.90;;;;;;5071094;28;20712;-71
2022/12/20 06:41:16;;;;;;;21.67;11.60;;;5.50;99.90;;;;;;5061627;28;20227;-75
2022/12/20 06:43:42;;;;;;;22.03;11.93;;;5.50;99.90;;;;;;5068774;28;20218;-76
2022/12/20 06:46:07;;;;;;;20.13;12.63;;;5.50;99.90;;;;;;5069038;28;20268;-75
2022/12/20 06:48:33;;;;;;;22.00;11.27;;;5.50;99.90;;;;;;5065555;28;20220;-72
2022/12/20 06:50:58;;;;;;;21.30;12.53;;;5.50;99.90;;;;;;5067747;28;20265;-72
2022/12/20 06:53:24;;;;;;;18.97;11.03;;;5.50;99.90;;;;;;5066949;28;20211;-72
2022/12/20 06:55:50;;;;;;;20.70;12.27;;;5.50;99.90;;;;;;5065337;28;20214;-71
2022/12/20 06:58:19;;;;;;;17.57;11.03;;;5.50;99.90;;;;;;5068257;28;20584;-72
2022/12/20 07:00:46;;;;;;;19.93;11.90;;;5.60;99.90;;;;;;5063665;28;20630;-73
2022/12/20 07:03:12;;;;;;;17.77;11.17;;;5.60;99.90;;;;;;5065144;28;20202;-72
2022/12/20 07:05:39;;;;;;;21.37;12.23;;;5.50;99.90;;;;;;5070789;28;20179;-71
2022/12/20 07:08:05;;;;;;;19.80;12.43;;;5.60;99.90;;;;;;5062738;28;20221;-71
2022/12/20 07:10:34;;;;;;;18.27;11.33;;;5.50;99.90;;;;;;5066758;28;20243;-72
2022/12/20 07:13:00;;;;;;;26.63;12.33;;;5.50;99.90;;;;;;5067811;28;20724;-73
2022/12/20 07:15:25;;;;;;;18.33;11.50;;;5.50;99.90;;;;;;5063738;28;20179;-73
2022/12/20 07:17:51;;;;;;;22.73;12.30;;;5.60;99.90;;;;;;5067509;28;20178;-73
2022/12/20 07:20:17;;;;;;;21.17;12.33;;;5.60;99.90;;;;;;5066135;28;20219;-74
2022/12/20 07:22:45;;;;;;;21.07;12.27;;;5.60;99.90;;;;;;5066344;28;20210;-73
2022/12/20 07:25:11;;;;;;;22.00;11.60;;;5.70;99.90;;;;;;5066660;28;20276;-73
2022/12/20 07:27:37;;;;;;;25.53;12.77;;;5.70;99.90;;;;;;5063983;28;20562;-73
2022/12/20 07:30:03;;;;;;;21.73;13.63;;;5.80;99.90;;;;;;5060824;28;20175;-74
2022/12/20 07:32:29;;;;;;;24.33;13.23;;;5.80;99.90;;;;;;5065686;28;20207;-72
2022/12/20 07:34:55;;;;;;;19.80;11.73;;;5.70;99.90;;;;;;5062409;28;20211;-73
2022/12/20 07:37:21;;;;;;;26.30;13.47;;;5.80;99.90;;;;;;5065352;28;20708;-72
2022/12/20 07:39:46;;;;;;;22.87;12.77;;;5.80;99.90;;;;;;5067820;28;20222;-73
2022/12/20 07:42:12;;;;;;;25.37;12.13;;;5.80;99.90;;;;;;5061623;28;20224;-72
2022/12/20 07:44:37;;;;;;;22.33;13.27;;;5.80;99.90;;;;;;5068197;28;20659;-73
2022/12/20 07:47:03;;;;;;;21.27;13.00;;;5.80;99.90;;;;;;5068306;28;20611;-72
2022/12/20 07:49:29;;;;;;;21.30;12.43;;;5.80;99.90;;;;;;5062047;28;20214;-72
2022/12/20 07:51:57;;;;;;;22.90;13.07;;;5.80;99.90;;;;;;5067352;28;20631;-72
2022/12/20 07:54:32;;;;;;;23.63;13.17;;;5.80;99.90;;;;;;5065872;28;20328;-71
2022/12/20 07:57:02;;;;;;;25.37;13.80;;;5.80;99.90;;;;;;5064164;28;20181;-71
2022/12/20 07:59:35;;;;;;;25.97;13.97;;;5.80;99.90;;;;;;5063029;28;20292;-72
2022/12/20 08:02:01;;;;;;;23.90;13.53;;;5.80;99.90;;;;;;5083694;28;20211;-71
2022/12/20 08:04:29;;;;;;;27.83;14.73;;;5.80;99.90;;;;;;5065909;28;20851;-72
2022/12/20 08:06:57;;;;;;;26.63;14.13;;;5.80;99.90;;;;;;5064966;28;20207;-72
2022/12/20 08:09:25;;;;;;;22.87;13.90;;;5.80;99.90;;;;;;5060967;28;20301;-72
2022/12/20 08:11:52;;;;;;;26.80;13.67;;;5.80;99.90;;;;;;5066944;28;20194;-72
2022/12/20 08:14:18;;;;;;;31.23;14.63;;;5.80;99.90;;;;;;5061411;28;20215;-72
2022/12/20 08:16:43;;;;;;;27.93;14.93;;;5.80;99.90;;;;;;5060608;28;20210;-72
2022/12/20 08:19:10;;;;;;;22.37;13.07;;;5.80;99.90;;;;;;5067918;28;20229;-72
2022/12/20 08:21:36;;;;;;;23.77;14.77;;;5.90;99.90;;;;;;5064377;28;20223;-71
2022/12/20 08:24:01;;;;;;;28.30;14.83;;;5.90;99.90;;;;;;5064455;28;20202;-71
2022/12/20 08:26:27;;;;;;;27.60;14.40;;;5.80;99.90;;;;;;5067835;28;20214;-71
2022/12/20 08:28:54;;;;;;;25.50;14.77;;;5.90;99.90;;;;;;5064000;28;20219;-70
2022/12/20 08:31:19;;;;;;;27.90;16.30;;;5.90;99.90;;;;;;5063625;28;20685;-71
2022/12/20 08:33:45;;;;;;;30.10;14.47;;;5.90;99.90;;;;;;5066646;28;20229;-71
2022/12/20 08:36:12;;;;;;;23.80;14.30;;;5.90;99.90;;;;;;5060223;28;20190;-69
2022/12/20 08:38:39;;;;;;;26.23;15.57;;;5.90;99.90;;;;;;5067283;28;20182;-71
2022/12/20 08:41:09;;;;;;;25.03;14.77;;;5.90;99.90;;;;;;5066110;28;20207;-70
2022/12/20 08:43:35;;;;;;;27.03;15.03;;;5.90;99.90;;;;;;5063524;28;20228;-71
2022/12/20 08:46:01;;;;;;;27.97;15.87;;;5.90;99.90;;;;;;5057328;28;20656;-69
2022/12/20 08:48:28;;;;;;;27.67;14.73;;;6.00;99.90;;;;;;5042969;28;20195;-71
2022/12/20 08:50:59;;;;;;;28.50;15.70;;;6.00;99.90;;;;;;5043090;28;20182;-69
2022/12/20 08:53:26;;;;;;;26.13;14.33;;;6.00;99.90;;;;;;5045893;28;20273;-71
2022/12/20 08:55:52;;;;;;;27.30;14.73;;;6.00;99.90;;;;;;5042906;28;20646;-69
2022/12/20 08:58:18;;;;;;;32.40;20.30;;;6.00;99.90;;;;;;5053403;28;20211;-71
2022/12/20 09:00:45;;;;;;;26.23;14.30;;;6.10;99.90;;;;;;5066693;28;20249;-71
2022/12/20 09:03:12;;;;;;;26.37;14.53;;;6.10;99.90;;;;;;5063156;28;20591;-73
2022/12/20 09:05:47;;;;;;;25.20;13.97;;;6.10;99.90;;;;;;5066694;28;20538;-71
2022/12/20 09:08:14;;;;;;;23.43;14.60;;;6.20;99.90;;;;;;5061786;28;20218;-73
2022/12/20 09:10:40;;;;;;;34.00;15.57;;;6.20;99.90;;;;;;5061669;28;20234;-74
2022/12/20 09:13:06;;;;;;;26.57;14.03;;;6.20;99.90;;;;;;5066287;28;20214;-74
2022/12/20 09:15:34;;;;;;;28.47;14.90;;;6.30;99.90;;;;;;5061784;28;20269;-73
2022/12/20 09:17:59;;;;;;;22.17;13.57;;;6.30;99.90;;;;;;5064441;28;20546;-72
2022/12/20 09:20:25;;;;;;;27.00;16.23;;;6.30;99.90;;;;;;5062833;28;20208;-73
2022/12/20 09:22:50;;;;;;;24.97;14.50;;;6.40;99.90;;;;;;5062503;28;20226;-73
2022/12/20 09:25:16;;;;;;;25.13;13.53;;;6.40;99.90;;;;;;5062194;28;20223;-73
2022/12/20 09:27:42;;;;;;;23.43;13.73;;;6.50;99.90;;;;;;5066224;28;20712;-70
2022/12/20 09:30:08;;;;;;;23.67;13.17;;;6.50;99.90;;;;;;5059527;28;20183;-70
2022/12/20 09:32:33;;;;;;;21.17;13.43;;;6.50;99.90;;;;;;5066009;28;20703;-74
2022/12/20 09:34:59;;;;;;;19.50;13.20;;;6.60;99.90;;;;;;5067231;28;20214;-74
2022/12/20 09:37:25;;;;;;;25.47;13.80;;;6.70;99.90;;;;;;5060730;28;20615;-73
2022/12/20 09:39:50;;;;;;;27.53;13.53;;;6.70;99.90;;;;;;5065652;28;20219;-72
2022/12/20 09:42:21;;;;;;;24.73;13.00;;;6.80;99.90;;;;;;5057824;28;20266;-71
2022/12/20 09:44:47;;;;;;;26.43;13.07;;;6.90;99.90;;;;;;5065114;28;20380;-72
2022/12/20 09:47:20;;;;;;;23.17;13.63;;;7.00;99.90;;;;;;5065330;28;20739;-72
2022/12/20 09:49:50;;;;;;;25.03;13.13;;;7.10;99.90;;;;;;5060626;28;20203;-73
2022/12/20 09:52:27;;;;;;;21.77;13.67;;;7.10;99.90;;;;;;5063245;28;20211;-73
2022/12/20 09:55:05;;;;;;;24.37;13.13;;;7.20;99.90;;;;;;5067497;28;20210;-72
2022/12/20 09:57:56;;;;;;;18.97;12.17;;;7.30;99.90;;;;;;5062317;28;20553;-74
2022/12/20 10:00:22;;;;;;;23.03;13.13;;;7.20;99.90;;;;;;5036847;28;20203;-72
2022/12/20 10:02:48;;;;;;;20.03;11.47;;;7.20;99.90;;;;;;5070498;28;20272;-72
2022/12/20 10:05:29;;;;;;;24.57;12.90;;;7.20;99.90;;;;;;5061910;28;20223;-72
2022/12/20 10:08:14;;;;;;;19.90;11.50;;;7.20;99.90;;;;;;5069974;28;20211;-71
2022/12/20 10:10:56;;;;;;;19.33;12.00;;;7.30;99.90;;;;;;5065772;28;20218;-73
2022/12/20 10:13:34;;;;;;;22.47;12.60;;;7.30;99.90;;;;;;5067319;28;20686;-72
2022/12/20 10:16:28;;;;;;;18.60;12.40;;;7.30;99.90;;;;;;5065780;28;20213;-70
2022/12/20 10:19:10;;;;;;;18.90;11.63;;;7.30;99.90;;;;;;5066078;28;20213;-69
2022/12/20 10:21:51;;;;;;;19.13;12.53;;;7.40;99.90;;;;;;5069353;28;20253;-74
2022/12/20 10:24:32;;;;;;;17.87;11.10;;;7.40;99.90;;;;;;5063580;28;20207;-71
2022/12/20 10:27:18;;;;;;;20.03;12.37;;;7.40;99.90;;;;;;5063817;28;20174;-71
2022/12/20 10:29:45;;;;;;;18.87;11.27;;;7.50;99.90;;;;;;5069334;28;20207;-71
2022/12/20 10:32:21;;;;;;;19.37;11.80;;;7.40;99.90;;;;;;5064545;28;20215;-72
2022/12/20 10:35:14;;;;;;;22.30;11.67;;;7.40;99.90;;;;;;5070791;28;20771;-69
2022/12/20 10:38:03;;;;;;;20.10;12.03;;;7.40;99.90;;;;;;5065919;28;20256;-71
2022/12/20 10:40:31;;;;;;;16.63;10.90;;;7.40;99.90;;;;;;5063398;28;20243;-72
2022/12/20 10:42:57;;;;;;;16.57;11.77;;;7.40;99.90;;;;;;5069678;28;20225;-71
2022/12/20 10:45:22;;;;;;;21.83;12.67;;;7.50;99.90;;;;;;5066215;28;20263;-71
2022/12/20 10:47:50;;;;;;;18.70;11.63;;;7.50;99.90;;;;;;5070770;28;20236;-72
2022/12/20 10:50:21;;;;;;;21.40;12.37;;;7.60;99.90;;;;;;5065663;28;20211;-70
2022/12/20 10:53:34;;;;;;;19.03;11.13;;;7.70;99.90;;;;;;5067761;28;20215;-73
2022/12/20 10:56:28;;;;;;;19.87;11.03;;;7.80;99.90;;;;;;5045047;28;20218;-71
2022/12/20 10:59:00;;;;;;;18.73;11.30;;;7.90;99.90;;;;;;5063853;28;20229;-71
2022/12/20 11:01:32;;;;;;;16.07;10.77;;;7.90;99.90;;;;;;5064025;28;20223;-71
2022/12/20 11:04:02;;;;;;;16.40;10.77;;;8.00;99.90;;;;;;5065397;28;20221;-70
2022/12/20 11:06:36;;;;;;;24.03;11.27;;;8.00;99.90;;;;;;5066734;28;20236;-70
2022/12/20 11:09:26;;;;;;;19.97;12.07;;;8.10;99.90;;;;;;5067262;28;20201;-72
2022/12/20 11:12:05;;;;;;;20.17;11.20;;;8.10;99.90;;;;;;5063431;28;20290;-71
2022/12/20 11:14:33;;;;;;;20.07;12.67;;;8.10;99.90;;;;;;5067918;28;20214;-70
2022/12/20 11:17:23;;;;;;;20.53;11.83;;;8.00;99.90;;;;;;5065491;28;20689;-70
2022/12/20 11:20:07;;;;;;;22.37;11.73;;;8.10;99.90;;;;;;5063666;28;20260;-72
2022/12/20 11:22:50;;;;;;;18.13;12.43;;;8.10;99.90;;;;;;5062651;28;20218;-72
2022/12/20 11:25:28;;;;;;;17.80;11.97;;;8.10;99.90;;;;;;5062683;28;20681;-71
2022/12/20 11:28:06;;;;;;;17.97;11.07;;;8.10;99.90;;;;;;5067334;28;20686;-69
2022/12/20 11:31:11;;;;;;;16.67;10.40;;;8.20;99.90;;;;;;5062720;28;20211;-71
2022/12/20 11:34:17;;;;;;;18.30;11.73;;;8.30;99.90;;;;;;5038472;28;20218;-71
2022/12/20 11:37:15;;;;;;;17.23;10.90;;;8.30;99.90;;;;;;5065050;28;20218;-72
2022/12/20 11:39:50;;;;;;;15.93;10.30;;;8.30;99.90;;;;;;5062332;28;20304;-71
2022/12/20 11:42:21;;;;;;;17.27;10.57;;;8.30;99.90;;;;;;5068658;28;20182;-71
2022/12/20 11:44:50;;;;;;;17.03;9.43;;;8.30;99.90;;;;;;5061365;28;20236;-73
2022/12/20 11:47:42;;;;;;;15.07;10.37;;;8.20;99.90;;;;;;5065230;28;20210;-73
2022/12/20 11:50:24;;;;;;;14.43;9.87;;;8.30;99.90;;;;;;5066005;28;20598;-73
2022/12/20 11:53:04;;;;;;;14.73;9.60;;;8.30;99.90;;;;;;5063116;28;20207;-73
2022/12/20 11:55:37;;;;;;;17.27;10.40;;;8.20;99.90;;;;;;5064491;28;20566;-71
2022/12/20 11:58:20;;;;;;;15.40;9.57;;;8.20;99.90;;;;;;5064985;28;20672;-73
2022/12/20 12:01:02;;;;;;;17.57;11.13;;;8.30;99.90;;;;;;5063858;28;20317;-72
2022/12/20 12:03:33;;;;;;;17.97;9.80;;;8.30;99.90;;;;;;5063071;28;20256;-73
2022/12/20 12:06:16;;;;;;;16.47;10.93;;;8.30;99.90;;;;;;5060275;28;20187;-72
2022/12/20 12:08:51;;;;;;;16.10;10.33;;;8.40;99.90;;;;;;5066565;28;20233;-73
2022/12/20 12:11:21;;;;;;;19.13;11.00;;;8.40;99.90;;;;;;5063240;28;20822;-73
2022/12/20 12:13:48;;;;;;;15.03;9.27;;;8.40;99.90;;;;;;5066316;28;20654;-72
2022/12/20 12:16:41;;;;;;;16.57;10.10;;;8.50;99.90;;;;;;5068385;28;20249;-73
2022/12/20 12:19:12;;;;;;;15.67;9.87;;;8.50;99.90;;;;;;5061256;28;20795;-72
2022/12/20 12:21:46;;;;;;;15.47;9.93;;;8.50;99.90;;;;;;5064005;28;20226;-73
2022/12/20 12:24:32;;;;;;;16.37;9.93;;;8.50;99.90;;;;;;5062519;28;20227;-72
2022/12/20 12:26:59;;;;;;;18.27;10.47;;;8.50;99.90;;;;;;5063824;28;20641;-73
2022/12/20 12:29:27;;;;;;;19.37;10.17;;;8.50;99.90;;;;;;5066286;28;20206;-72
2022/12/20 12:32:03;;;;;;;15.97;10.67;;;8.50;99.90;;;;;;5063458;28;20226;-70
2022/12/20 12:34:36;;;;;;;15.20;10.27;;;8.50;99.90;;;;;;5066100;28;20233;-71
2022/12/20 12:37:25;;;;;;;18.20;9.53;;;8.60;99.90;;;;;;5077622;23;20231;-74
2022/12/20 12:40:03;;;;;;;14.43;9.20;;;8.60;99.90;;;;;;5013920;28;20246;-68
2022/12/20 12:42:51;;;;;;;17.53;9.93;;;8.60;99.90;;;;;;5066128;28;20228;-67
2022/12/20 12:45:31;;;;;;;18.30;9.80;;;8.60;99.90;;;;;;5045022;28;20222;-68
2022/12/20 12:48:13;;;;;;;17.50;9.57;;;8.60;99.90;;;;;;5039073;28;20168;-69
2022/12/20 12:50:44;;;;;;;15.17;9.87;;;8.60;99.90;;;;;;5043576;28;20226;-71
2022/12/20 12:53:19;;;;;;;15.87;9.93;;;8.70;99.90;;;;;;5040743;28;20215;-72
2022/12/20 12:55:47;;;;;;;16.23;9.27;;;8.70;99.90;;;;;;5028608;28;20249;-71
2022/12/20 12:58:23;;;;;;;17.60;10.60;;;8.60;99.90;;;;;;5024903;28;20316;-72
2022/12/20 13:00:50;;;;;;;16.60;9.70;;;8.70;99.90;;;;;;5043665;28;20225;-71